今日のアクセス数

    岡山グライダークラブ活動状況掲示板あなたは無料カウンター人目の訪問者です

岡山グライダークラブ
岡山市浦安南町639-1 岡南飛行場
 使用機:シャイベ式 SF25C型 ファルケ   JA2330
      ヴァレンティン式17E型 タイフーン  JA2342
 練習日:毎日曜日  クラブルーム:電話 086-265-1810
この掲示板は岡山グライダークラブの活動状況をお知らせする掲示板です。
!!!この掲示板は投稿規制をしています。!!!
クラブ関連各種情報は 岡山グライダークラブクラブルーム      を       .
  ブリーフイング情報は  岡山グライダークラブブリーフィングルーム  をご覧下さい。 .
※写真はクリックすると拡大して見ることが出来ます。
岡南飛行場へのアクセス等は 岡南飛行場管理事務所 をご覧ください。
クラブの ホームページ ができました。

ページ 1 (1〜10)ホームページへ戻る

08月04日
by OGC at 2019/8/5(月) 00:07:38 No.20190805000606 コメント】  削除 引用
1706 x 960 x 114,212バイト <この画像は大きいので別画面で表示します>
No.1

08月04日
本日の参加者
  会員      13名
  その他      0名


@本日の様子




METAR
RJBK 040000Z 07003KT 010V110 15KM FEW015CU BKN025CU 30/25 Q1011 A2987
RJOB 040000Z VRB03KT 9999 FEW010 SCT015 29/26 Q1012
RJOT 040000Z VRB04KT 9999 FEW020 29/24 Q1012
RJOA 040000Z 12003KT 080V150 6000 FEW008 BKN013 27/23 Q1013
TAF
RJOB 032311Z 0400/0506 13006KT 9999 FEW025 SCT035
RJOT 032313Z 0400/0506 06008KT 9999 FEW025
RJOA 032308Z 0400/0506 15006KT 9999 FEW015 SCT030
          TEMPO 0400/0401 4000 BR BCFG FEW000 BKN008 BKN015
          BECMG 0409/0411 32005KT
          BECMG 0415/0418 07010KT

本日も猛暑日、暑い中整備を行い、ファルケ2機とも整備完了。タイフーンはまだ整備中。
次回から訓練フライト再開です。整備に汗を流した方お疲れ様です。(次週はお盆休み)


解散    18:30

1番機  16:45離陸 撤収機  17:55着陸 

SF25C JA2330 ファルケ     02Flt.0h45min  
17E   JA2342 タイフーン    00Flt.0h00min  
合計                    02Flt.0h45min
07月28日
by OGC at 2019/7/28(日) 22:42:45 No.20190728223844 コメント】  削除 引用
1706 x 960 x 165,062バイト <この画像は大きいので別画面で表示します>
No.1

07月28日
本日の参加者
  会員      12名
  その他      0名


@本日の様子




METAR
RJBK 280000Z 09005KT 07KM FEW012CU SCT015CU BKN070AC 28/25 Q1013 A2992
RJOB 280000Z 11004KT 060V140 6000 FEW005 SCT010 BKN070 27/25 Q1014
RJOT 280000Z 01004KT 330V070 9999 FEW040 29/24 Q1014
RJOA 280000Z 11003KT 3000 BCFG BR FEW000 BKN015 BKN/// 24/22 Q1015
TAF
RJOB 272305Z 2800/2906 12004KT 9999 FEW020 SCT040
         BECMG 2800/2802 18007KT
         TEMPO 2804/2807 TS FEW015 SCT025 FEW025CB BKN035
         BECMG 2807/2809 06005KT
         BECMG 2821/2900 18005KT
RJOT 272309Z 2800/2906 35005KT 9999 FEW009 BKN025
         TEMPO 2805/2808 TS FEW003 SCT009 FEW020CB BKN025
         BECMG 2809/2811 18004KT
         BECMG 2900/2903 03005KT
RJOA 272336Z 2800/2906 22005KT 9999 FEW008 SCT015 BKN025
         TEMPO 2800/2802 4000 BR BCFG FEW000 BKN008 BKN012
         TEMPO 2804/2807 TS FEW001 SCT008 FEW020CB BKN025

本日は晴れ、先々週から耐空検査の整備中。
やっと、3機とも翼を組み整備後半戦に突入ってところでしょうか。

解散    17:30

本日のフライトはありません。

07月21日
by OGC at 2019/7/21(日) 17:57:08 No.20190721175428 コメント】  削除 引用
1024 x 768 x 283,720バイト
No.1

07月21日
本日の参加者
  会員      14名
  その他      0名


@本日の様子




METAR
RJBK 210200Z 09006KT 30KM FEW015CU SCT025CU BKN060SC 28/25 Q1010 A2984
RJOB 210200Z 11007KT 9999 FEW010 SCT100 BKN140 27/25 Q1012
RJOT 210200Z VRB02KT 9999 -SHRA FEW003 SCT040 BKN110 26/25 Q1012
RJOA 210200Z 15005KT 110V230 9999 -SHRA FEW005 SCT010 BKN025 25/22 Q1012
TAF
RJOB 202308Z 2100/2206 12007KT 8000 -SHRA FEW005 SCT015 BKN025
         BECMG 2101/2103 17006KT
         TEMPO 2106/2115 3000 -SHRA BR BCFG FEW000 SCT004 BKN008
         BECMG 2108/2110 12005KT
         TEMPO 2121/2206 4000 -SHRA BR FEW002 SCT005 BKN008
         BECMG 2200/2203 20006KT
RJOT 202307Z 2100/2206 08004KT 9000 -SHRA FEW008 SCT015 BKN035
         BECMG 2200/2203 26006KT
         TEMPO 2200/2206 4000 SHRA BR
RJOA 202310Z 2100/2206 12004KT 9999 -SHRA FEW001 SCT008 BKN020
         BECMG 2101/2103 20005KT 4000 -SHRA BR BCFG FEW000 SCT005 BKN008
         TEMPO 2103/2106 3000 SHRA BR BCFG FEW000 SCT003 BKN005
         TEMPO 2106/2112 1500 SHRA BR BCFG FEW000 SCT001 BKN003
         TEMPO 2121/2206 1500 SHRA BR BCFG FEW000 SCT003 BKN005

本日は曇りのち雨、先週から耐空検査の整備中。
整備の注意点など技術継承しながら、協力して仲良く整備を進めています。

解散    16:30

本日のフライトはありません。

07月14日
by OGC at 2019/7/15(月) 00:29:58 No.20190715002628 コメント】  削除 引用
1024 x 768 x 125,784バイト
No.1

07月14日
本日の参加者
  会員      14名
  その他      1名


@本日の様子




METAR
RJBK 140100Z 18003KT 150V220 25KM FEW008ST SCT015CU BKN025CU 23/21 Q1001 A2956
RJOB 140100Z 14003KT 070V170 9999 FEW007 SCT010 BKN015 23/22 Q1001
RJOT 140100Z VRB02KT 1500 R26/P2000N -SHRA BR FEW000 SCT001 BKN003 21/21 Q1001
RJOA 140100Z 19002KT 3000 R10/P1800N -SHRA BCFG BR FEW000 SCT003 BKN008 21/19 Q1002
TAF
RJOB 132321Z 1400/1506 07004KT 9000 FEW010 BKN025
     TEMPO 1400/1402 4000 -RA BR FEW003 BKN009 BKN015
RJOT 132308Z 1400/1506 24004KT 4000 -RA BR FEW003 BKN008 BKN015
     TEMPO 1400/1406 1500 -RA BR FEW001 SCT003 BKN005
     TEMPO 1412/1418 1500 -RA BR FEW001 SCT003 BKN005
     BECMG 1418/1421 9999 NSW FEW015 BKN045
     BECMG 1500/1503 04005KT
RJOA 132305Z 1400/1506 34004KT 7000 FEW008 BKN015 BKN025
     TEMPO 1400/1403 3000 BR BCFG FEW000 BKN008 BKN015

本日は雨、今週からしばらく耐空検査の整備です。
会員が増えた効果もあり、例年より進捗が早いかも。。。

解散    16:30

本日のフライトはありません。
07月07日
by OGC at 2019/7/7(日) 23:58:20 No.20190707235350 コメント】  削除 引用
1024 x 768 x 81,477バイト
No.1

07月07日
本日の参加者
  会員      17名
  その他      1名


@本日の様子




METAR
RJBK 070000Z 06005KT 340V110 30KM FEW035CU 26/19 Q1005 A2969
RJOB 070000Z 36005KT 320V040 9999 FEW020 SCT/// 25/19 Q1005
RJOT 070000Z 33003KT 260V040 9999 FEW020 BKN035 24/20 Q1006
RJOA 070000Z VRB01KT 9999 BKN025 23/16 Q1007
TAF
RJOB 062310Z 0700/0806 03005KT 9999 FEW020 SCT035
     BECMG 0701/0703 20005KT
     BECMG 0709/0711 35005KT
     BECMG 0800/0803 20005KT
RJOT 062309Z 0700/0806 01005KT 9999 FEW025 SCT050
     BECMG 0702/0704 19005KT
     BECMG 0803/0806 36005KT
RJOA 062306Z 0700/0806 15005KT 9999 FEW025
     BECMG 0704/0706 19006KT



本日は晴れ。次週から耐空検査の整備に入ることから、集まった会員数がまたまた近年の記録更新となりました。
訓練生は、いつも通りTGLやソアリング。ライセンサーはサーマルを探しに行き、なかなかいいコンディションだったようです。
また、次週からの整備に備え、訓練後には機体の解体やコンプレッションの測定等を行いました。


解散    17:50

1番機  11:05離陸 撤収機  16:15着陸 

SF25C JA2330 ファルケ     09Flt.3h00min  
17E   JA2342 タイフーン    06Flt.2h50min  
合計                    15Flt.5h50min
06月23日
by OGC at 2019/6/24(月) 00:26:21 No.20190624002434 コメント】  削除 引用
1024 x 768 x 58,483バイト
No.1

06月23日
本日の参加者
  会員      16名
  その他      1名


@本日の様子




METAR
RJBK 230000Z VRB02KT 30KM FEW020CU SCT030CU BKN050SC 21/16 Q1005 A2969
RJOB 230000Z 36005KT 310V050 9999 FEW015 SCT020 BKN030 21/16 Q1005
RJOT 230000Z 07006KT 9999 FEW015 SCT020 BKN040 20/17 Q1005
RJOA 230000Z 33007KT 9999 FEW020 SCT025 BKN045 20/10 Q1006
TAF
RJOB 222307Z 2300/2406 13004KT 9999 FEW020 SCT035
         TEMPO 2308/2310 3000 TSRA BR FEW005 SCT020 FEW020CB BKN035
         BECMG 2400/2403 24005KT
RJOT 222310Z 2300/2406 06007KT 9999 FEW015 BKN035
         BECMG 2318/2321 29007KT
RJOA 222307Z 2300/2406 34005KT 9999 FEW020 SCT035
         BECMG 2302/2304 17005KT
         BECMG 2308/2310 34006KT



本日は、曇りでお昼ごろ一時日差しがあり、湿度も高くサーマルが期待される天候でした。
訓練生は、いつも通りTGLやソアリング、NAV訓練等を行い。ライセンサーは、サーマルを探してウロチョロしていました。


解散    18:00

1番機  11:00離陸 撤収機  17:25着陸 

SF25C JA2330 ファルケ     09Flt.3h40min  
17E   JA2342 タイフーン    06Flt.2h50min  
合計                    15Flt.6h30min
06月16日
by OGC at 2019/6/16(日) 19:55:26 No.20190616194934 コメント】  削除 引用
1024 x 768 x 88,963バイト
No.1

06月16日
本日の参加者
  会員      14名
  その他      2名


@本日の様子




METAR
RJOB 160000Z 26006KT 9999 FEW015 BKN025 20/15 Q1002
RJOT 160000Z 26015KT 9999 FEW010 SCT020 22/17 Q1002
RJOA 160000Z 26007KT 9999 FEW015 BKN025 19/14 Q1004
TAF
RJOB 152311Z 1600/1706 30010KT 9999 FEW025 SCT035
         BECMG 1615/1618 35004KT
         BECMG 1700/1703 22006KT
RJOT 152312Z 1600/1706 26015KT 9999 FEW020 BKN040
         BECMG 1610/1612 22005KT
RJOA 152305Z 1600/1706 30012KT 9999 FEW020 SCT035
         BECMG 1618/1621 02004KT
         BECMG 1700/1703 20005KT



本日は、朝とお昼ごろに局地的な雨が降り、急遽、格納庫にグライダーを格納するハプニングもありましたが、いい横風離着陸の練習日和でした。
訓練生は、いつも通りTGLやソアリング。一方、ライセンサーは、いいサーマルを期待して探しに行ってはみましたが、、、う〜ん、腕か運かよくわかりませんが、いいサーマルを捕まえることができませんでした。(^-^;


解散    18:00

1番機  10:50離陸 撤収機  17:20着陸 

SF25C JA2330 ファルケ     10Flt.3h30min  
17E   JA2342 タイフーン    04Flt.1h35min  
合計                    14Flt.5h05min
06月09日
by OGC at 2019/6/9(日) 20:43:39 No.20190609203659 コメント】  削除 引用
1024 x 768 x 93,635バイト
No.1

06月09日
本日の参加者
  会員      12名
  その他      0名


@本日の様子




METAR
RJBK 090000Z 05004KT 360V090 30KM FEW030CU BKN/// 21/14 Q1006 A2972
RJOB 090000Z 08006KT 030V120 9999 FEW020 SCT025 BKN/// 19/12 Q1006
RJOT 090000Z 05010KT 020V100 9999 FEW025 BKN/// 21/14 Q1006
RJOA 090000Z 11005KT 050V180 9999 FEW025 SCT/// 18/11 Q1006
TAF
RJOB 082309Z 0900/1006 13005KT 9999 FEW030
RJOT 082312Z 0900/1006 06012KT 9999 FEW030 SCT060
         BECMG 0909/0911 15004KT
RJOA 082307Z 0900/1006 15006KT 9999 FEW030



本日は、晴れ風もほぼ正対風、絶好の着陸練習日和でした。
訓練生は、高松空港へNAV訓練に行ったり、岡南飛行場でいつも通りTGLをやったりしていました。一方、ライセンサーは、今週もサーマル探しに行ってはみましたが、、、上昇できそうなところは見当たりませんでした。


解散    18:30

1番機  10:25離陸 撤収機  17:45着陸 

SF25C JA2330 ファルケ     11Flt.4h10min  
17E   JA2342 タイフーン    03Flt.1h35min  
合計                    14Flt.5h45min
06月02日
by OGC at 2019/6/3(月) 00:00:48 No.20190602235348 コメント】  削除 引用
1024 x 768 x 66,964バイト
No.1

06月02日
本日の参加者
  会員      14名
  その他      0名


@本日の様子




METAR
RJBK 020000Z 06005KT 10KM FEW025CU SCT170AC BKN/// 20/10 Q1009 A2981
RJOB 020000Z 09004KT 9999 FEW020 SCT150 BKN160 18/14 Q1009
RJOT 020000Z 08005KT 3500 BR FEW003 BKN150 19/18 Q1010
RJOA 020000Z 10003KT 070V160 9999 FEW025 BKN130 19/11 Q1010
TAF
RJOB 012308Z 0200/0306 11009KT 9999 FEW020
       BECMG 0303/0306 18007KT
RJOT 012331Z 0200/0306 07007KT 7000 FEW030
       TEMPO 0200/0204 4000 BR
RJOA 012305Z 0200/0306 12006KT 9999 FEW030



本日は、曇りで風もほぼ正対風で弱く、絶好の着陸練習日和でした。
訓練生はいつも通りTGLやノースポイラの着陸練習を行い、ライセンサーはサーマル探しに行ってはみましたが、、、上昇できそうなところは見当たりませんでした。


解散    17:30

1番機  10:25離陸 撤収機  17:00着陸 

SF25C JA2330 ファルケ     11Flt.3h35min  
17E   JA2342 タイフーン    04Flt.1h05min  
合計                    15Flt.4h40min
05月26日
by OGC at 2019/5/27(月) 00:04:12 No.20190527000052 コメント】  削除 引用
1024 x 768 x 66,614バイト
No.1

05月26日
本日の参加者
  会員      13名
  その他      1名


@本日の様子




METAR
RJBK 260000Z VRB02KT 10KM BKN/// 23/17 Q1019 A3009
RJOB 260000Z 12003KT 080V160 CAVOK 22/17 Q1019
RJOT 260000Z 35003KT 270V040 CAVOK 24/13 Q1019
RJOA 260000Z 15003KT 120V190 CAVOK 22/10 Q1020
TAF
RJOB  252307Z 2600/2706 22007KT CAVOK
         BECMG 2612/2615 03004KT
         BECMG 2700/2703 19008KT
RJOT  252308Z 2600/2706 33006KT 9999 FEW030
         BECMG 2610/2612 15006KT
         BECMG 2700/2703 32004KT
RJOA 252305Z 2600/2706 21006KT 9999 FEW035


本日は、野焼きの影響で3000ft付近の視程が今一つでしたが、風が弱く着陸練習日和。
訓練生はTGL等、ライセンサーはサーマルを探しに行っていました。


解散    17:30

1番機  10:35離陸 撤収機  16:35着陸 

SF25C JA2330 ファルケ     08Flt.4h00min  
17E   JA2342 タイフーン    04Flt.1h50min  
合計                    12Flt.5h50min
ホームページへ 全 49 件 [ 1 2 3 4 5 ]

モータースポーツ | 管理者へメール | お知らせ | 一括削除
携帯から使う方法 | ヘルプ | 利用規約 | 違反報告 | 管理パネル



- 無料レンタル掲示板 -